Time;durP1;ratioP1;P1;durP2;ratioP2;P2;SDS_P1;SDS_P2;PMS_P1;PMS_P2;Temp;Humidity;BMP_temperature;BMP_pressure;BME280_temperature;BME280_humidity;BME280_pressure;Samples;Min_cycle;Max_cycle;Signal;HPM_P1;HPM_P2
2024/01/10 00:00:37;;;;;;;;;;;-5.10;99.90;;;;;;5014971;28;19972;-76
2024/01/10 00:03:22;;;;;;;;;;;-5.10;99.90;;;;;;5002626;28;19946;-76
2024/01/10 00:06:08;;;;;;;;;;;-5.20;99.90;;;;;;5020710;28;19978;-76
2024/01/10 00:08:54;;;;;;;;;;;-5.20;99.90;;;;;;5036452;28;19917;-76
2024/01/10 00:11:40;;;;;;;;;;;-5.20;99.90;;;;;;5024194;28;20291;-76
2024/01/10 00:14:26;;;;;;;;;;;-5.20;99.90;;;;;;5018412;28;19912;-76
2024/01/10 00:17:12;;;;;;;;;;;-5.20;99.90;;;;;;5014427;28;19920;-76
2024/01/10 00:19:58;;;;;;;;;;;-5.20;99.90;;;;;;5003968;28;19929;-76
2024/01/10 00:22:44;;;;;;;;;;;-5.20;99.90;;;;;;5031564;28;19917;-76
2024/01/10 00:25:30;;;;;;;;;;;-5.20;99.90;;;;;;5003756;28;20055;-76
2024/01/10 00:28:17;;;;;;;;;;;-5.20;99.90;;;;;;5044793;28;20632;-76
2024/01/10 00:31:03;;;;;;;;;;;-5.30;99.90;;;;;;5005043;28;19932;-76
2024/01/10 00:33:49;;;;;;;;;;;-5.20;99.90;;;;;;5015330;28;19913;-76
2024/01/10 00:36:35;;;;;;;;;;;-5.30;99.90;;;;;;5008661;28;19920;-76
2024/01/10 00:39:21;;;;;;;;;;;-5.30;99.90;;;;;;5032940;28;19929;-76
2024/01/10 00:42:07;;;;;;;;;;;-5.30;99.90;;;;;;5017912;28;19917;-76
2024/01/10 00:44:53;;;;;;;;;;;-5.30;99.90;;;;;;5019435;28;19913;-76
2024/01/10 00:47:39;;;;;;;;;;;-5.30;99.90;;;;;;5013849;28;20020;-76
2024/01/10 00:50:25;;;;;;;;;;;-5.40;99.90;;;;;;5021109;28;19940;-76
2024/01/10 00:53:10;;;;;;;;;;;-5.30;99.90;;;;;;4876506;28;4249457;-76
2024/01/10 00:55:56;;;;;;;;;;;-5.40;99.90;;;;;;5046236;28;19951;-76
2024/01/10 00:58:42;;;;;;;;;;;-5.40;99.90;;;;;;5026922;28;19913;-76
2024/01/10 01:01:28;;;;;;;;;;;-5.40;99.90;;;;;;5021469;28;20373;-76
2024/01/10 01:04:14;;;;;;;;;;;-5.40;99.90;;;;;;5019898;28;19948;-75
2024/01/10 01:07:00;;;;;;;;;;;-5.50;99.90;;;;;;5021188;28;19927;-76
2024/01/10 01:09:46;;;;;;;;;;;-5.40;99.90;;;;;;5001872;28;20000;-76
2024/01/10 01:12:32;;;;;;;;;;;-5.40;99.90;;;;;;5028923;28;20242;-75
2024/01/10 01:15:18;;;;;;;;;;;-5.40;99.90;;;;;;5002858;28;19950;-76
2024/01/10 01:18:04;;;;;;;;;;;-5.50;99.90;;;;;;5001099;28;19917;-76
2024/01/10 01:20:50;;;;;;;;;;;-5.40;99.90;;;;;;5020434;28;20324;-76
2024/01/10 01:23:36;;;;;;;;;;;-5.40;99.90;;;;;;5020580;28;19913;-76
2024/01/10 01:26:21;;;;;;;;;;;-5.50;99.90;;;;;;5008807;28;19924;-76
2024/01/10 01:29:08;;;;;;;;;;;-5.40;99.90;;;;;;5006066;28;20063;-75
2024/01/10 01:31:54;;;;;;;;;;;-5.50;99.90;;;;;;4998519;28;20083;-76
2024/01/10 01:34:40;;;;;;;;;;;-5.50;99.90;;;;;;5001763;28;19949;-76
2024/01/10 01:37:26;;;;;;;;;;;-5.50;99.90;;;;;;5014663;28;19956;-76
2024/01/10 01:40:12;;;;;;;;;;;-5.50;99.90;;;;;;5006534;28;19925;-76
2024/01/10 01:42:58;;;;;;;;;;;-5.50;99.90;;;;;;5021078;28;20277;-76
2024/01/10 01:45:44;;;;;;;;;;;-5.60;99.90;;;;;;5008151;28;19985;-76
2024/01/10 01:48:30;;;;;;;;;;;-5.50;99.90;;;;;;5019789;28;20351;-76
2024/01/10 01:51:17;;;;;;;;;;;-5.50;99.90;;;;;;5020258;28;20008;-76
2024/01/10 01:54:03;;;;;;;;;;;-5.50;99.90;;;;;;5034587;28;19961;-76
2024/01/10 01:56:50;;;;;;;;;;;-5.50;99.90;;;;;;5019683;28;19935;-76
2024/01/10 01:59:36;;;;;;;;;;;-5.50;99.90;;;;;;5034421;28;19913;-76
2024/01/10 02:02:22;;;;;;;;;;;-5.50;99.90;;;;;;5007847;28;19935;-76
2024/01/10 02:05:09;;;;;;;;;;;-5.50;99.90;;;;;;5002038;28;19939;-76
2024/01/10 02:07:55;;;;;;;;;;;-5.40;99.90;;;;;;5000690;28;19913;-76
2024/01/10 02:10:41;;;;;;;;;;;-5.50;99.90;;;;;;4989017;28;19917;-76
2024/01/10 02:13:27;;;;;;;;;;;-5.50;99.90;;;;;;5014095;28;19918;-76
2024/01/10 02:16:13;;;;;;;;;;;-5.60;99.90;;;;;;5017731;28;20302;-76
2024/01/10 02:19:00;;;;;;;;;;;-5.60;99.90;;;;;;5018800;28;19921;-76
2024/01/10 02:21:46;;;;;;;;;;;-5.60;99.90;;;;;;5018532;28;20004;-76
2024/01/10 02:24:32;;;;;;;;;;;-5.60;99.90;;;;;;4988566;28;19914;-76
2024/01/10 02:27:17;;;;;;;;;;;-5.60;99.90;;;;;;5001299;28;19914;-76
2024/01/10 02:30:04;;;;;;;;;;;-5.60;99.90;;;;;;4994672;28;19924;-76
2024/01/10 02:32:50;;;;;;;;;;;-5.60;99.90;;;;;;5034811;28;19913;-76
2024/01/10 02:35:36;;;;;;;;;;;-5.70;99.90;;;;;;5019766;28;19928;-76
2024/01/10 02:38:23;;;;;;;;;;;-5.70;99.90;;;;;;5018982;28;20063;-76
2024/01/10 02:41:09;;;;;;;;;;;-5.70;99.90;;;;;;5000292;28;19925;-76
2024/01/10 02:43:58;;;;;;;;;;;-5.70;99.90;;;;;;4986485;28;19949;-76
2024/01/10 02:46:44;;;;;;;;;;;-5.70;99.90;;;;;;5001078;28;19948;-76
2024/01/10 02:49:30;;;;;;;;;;;-5.70;99.90;;;;;;5004799;28;19917;-76
2024/01/10 02:52:16;;;;;;;;;;;-5.70;99.90;;;;;;5006467;28;19956;-76
2024/01/10 02:55:01;;;;;;;;;;;-5.70;99.90;;;;;;5020514;28;19914;-76
2024/01/10 02:57:47;;;;;;;;;;;-5.80;99.90;;;;;;5007579;28;19917;-76
2024/01/10 03:00:33;;;;;;;;;;;-5.70;99.90;;;;;;5006412;28;20296;-75
2024/01/10 03:03:19;;;;;;;;;;;-5.80;99.90;;;;;;5007186;28;20245;-75
2024/01/10 03:06:05;;;;;;;;;;;-5.80;99.90;;;;;;5001226;28;19952;-75
2024/01/10 03:08:51;;;;;;;;;;;-5.80;99.90;;;;;;5019393;28;20011;-75
2024/01/10 03:11:37;;;;;;;;;;;-5.80;99.90;;;;;;5020241;28;19917;-75
2024/01/10 03:14:23;;;;;;;;;;;-5.80;99.90;;;;;;5019815;28;19917;-76
2024/01/10 03:17:09;;;;;;;;;;;-5.90;99.90;;;;;;5019840;28;19925;-76
2024/01/10 03:19:55;;;;;;;;;;;-5.90;99.90;;;;;;5018633;28;19913;-76
2024/01/10 03:22:40;;;;;;;;;;;-5.90;99.90;;;;;;5018833;28;20327;-76
2024/01/10 03:25:26;;;;;;;;;;;-5.90;99.90;;;;;;5006056;28;19913;-76
2024/01/10 03:28:15;;;;;;;;;;;-5.90;99.90;;;;;;5019478;28;20306;-76
2024/01/10 03:31:01;;;;;;;;;;;-5.90;99.90;;;;;;5007019;28;19920;-76
2024/01/10 03:33:47;;;;;;;;;;;-5.90;99.90;;;;;;5007856;28;20322;-76
2024/01/10 03:36:32;;;;;;;;;;;-5.90;99.90;;;;;;5024062;28;19925;-75
2024/01/10 03:39:18;;;;;;;;;;;-5.90;99.90;;;;;;5006921;28;19925;-76
2024/01/10 03:42:04;;;;;;;;;;;-5.90;99.90;;;;;;5010240;28;19920;-75
2024/01/10 03:44:50;;;;;;;;;;;-5.90;99.90;;;;;;5024317;28;19959;-76
2024/01/10 03:47:38;;;;;;;;;;;-5.90;99.90;;;;;;5006315;28;19913;-75
2024/01/10 03:50:24;;;;;;;;;;;-5.90;99.90;;;;;;5016913;28;19914;-75
2024/01/10 03:53:10;;;;;;;;;;;-5.90;99.90;;;;;;5032295;28;19951;-75
2024/01/10 03:55:56;;;;;;;;;;;-6.00;99.90;;;;;;5011175;28;19917;-75
2024/01/10 03:58:42;;;;;;;;;;;-6.00;99.90;;;;;;5010944;28;20341;-75
2024/01/10 04:01:27;;;;;;;;;;;-6.00;99.90;;;;;;5010965;28;19928;-75
2024/01/10 04:04:13;;;;;;;;;;;-6.00;99.90;;;;;;5022053;28;19921;-76
2024/01/10 04:06:59;;;;;;;;;;;-6.00;99.90;;;;;;5009561;28;19924;-76
2024/01/10 04:09:46;;;;;;;;;;;-6.00;99.90;;;;;;5036312;28;20007;-75
2024/01/10 04:12:32;;;;;;;;;;;-6.10;99.90;;;;;;5009621;28;19917;-75
2024/01/10 04:15:18;;;;;;;;;;;-6.00;99.90;;;;;;5009996;28;19990;-75
2024/01/10 04:18:04;;;;;;;;;;;-6.10;99.90;;;;;;5036784;28;19995;-75
2024/01/10 04:20:50;;;;;;;;;;;-6.10;99.90;;;;;;5036504;28;19925;-75
2024/01/10 04:23:37;;;;;;;;;;;-6.10;99.90;;;;;;5008650;28;19920;-75
2024/01/10 04:26:22;;;;;;;;;;;-6.20;99.90;;;;;;5009863;28;19921;-75
2024/01/10 04:29:08;;;;;;;;;;;-6.10;99.90;;;;;;5022843;28;19921;-76
2024/01/10 04:31:54;;;;;;;;;;;-6.10;99.90;;;;;;5023096;28;19917;-76
2024/01/10 04:34:40;;;;;;;;;;;-6.10;99.90;;;;;;5036315;28;19924;-76
2024/01/10 04:37:26;;;;;;;;;;;-6.20;99.90;;;;;;5003800;28;19929;-75
2024/01/10 04:40:12;;;;;;;;;;;-6.20;99.90;;;;;;4989735;28;20662;-76
2024/01/10 04:42:58;;;;;;;;;;;-6.20;99.90;;;;;;5001774;28;19917;-75
2024/01/10 04:45:44;;;;;;;;;;;-6.20;99.90;;;;;;5008287;28;19917;-76
2024/01/10 04:48:29;;;;;;;;;;;-6.20;99.90;;;;;;5009481;28;19995;-76
2024/01/10 04:51:15;;;;;;;;;;;-6.30;99.90;;;;;;5009595;28;20278;-76
2024/01/10 04:54:01;;;;;;;;;;;-6.30;99.90;;;;;;5019519;28;19921;-76
2024/01/10 04:56:47;;;;;;;;;;;-6.30;99.90;;;;;;5048645;28;19944;-75
2024/01/10 04:59:33;;;;;;;;;;;-6.30;99.90;;;;;;5048947;28;19944;-75
2024/01/10 05:02:19;;;;;;;;;;;-6.30;99.90;;;;;;5005687;28;19953;-75
2024/01/10 05:05:05;;;;;;;;;;;-6.30;99.90;;;;;;5021736;28;19913;-76
2024/01/10 05:07:51;;;;;;;;;;;-6.30;99.90;;;;;;5003194;28;19918;-77
2024/01/10 05:10:36;;;;;;;;;;;-6.30;99.90;;;;;;5024445;28;20067;-76
2024/01/10 05:13:22;;;;;;;;;;;-6.40;99.90;;;;;;5009995;28;19948;-76
2024/01/10 05:16:08;;;;;;;;;;;-6.40;99.90;;;;;;5006698;28;19964;-76
2024/01/10 05:18:54;;;;;;;;;;;-6.40;99.90;;;;;;5030075;28;19937;-76
2024/01/10 05:21:40;;;;;;;;;;;-6.40;99.90;;;;;;5015454;28;19917;-76
2024/01/10 05:24:26;;;;;;;;;;;-6.40;99.90;;;;;;5002660;28;20326;-76
2024/01/10 05:27:11;;;;;;;;;;;-6.40;99.90;;;;;;5003645;28;19944;-76
2024/01/10 05:29:59;;;;;;;;;;;-6.40;99.90;;;;;;5021912;28;20236;-76
2024/01/10 05:32:45;;;;;;;;;;;-6.40;99.90;;;;;;5020977;28;20342;-76
2024/01/10 05:35:31;;;;;;;;;;;-6.40;99.90;;;;;;5001238;28;20241;-76
2024/01/10 05:38:16;;;;;;;;;;;-6.40;99.90;;;;;;5004097;28;20004;-76
2024/01/10 05:41:02;;;;;;;;;;;-6.40;99.90;;;;;;5022203;28;20494;-76
2024/01/10 05:43:48;;;;;;;;;;;-6.40;99.90;;;;;;5021146;28;19913;-76
2024/01/10 05:46:37;;;;;;;;;;;-6.40;99.90;;;;;;5021252;28;19913;-76
2024/01/10 05:49:23;;;;;;;;;;;-6.40;99.90;;;;;;5002008;28;19913;-75
2024/01/10 05:52:09;;;;;;;;;;;-6.40;99.90;;;;;;5035146;28;19925;-76
2024/01/10 05:54:55;;;;;;;;;;;-6.50;99.90;;;;;;5034513;28;20341;-76
2024/01/10 05:57:41;;;;;;;;;;;-6.40;99.90;;;;;;5007923;28;19974;-75
2024/01/10 06:00:28;;;;;;;;;;;-6.50;99.90;;;;;;5008543;28;19913;-76
2024/01/10 06:03:14;;;;;;;;;;;-6.40;99.90;;;;;;5007477;28;20345;-76
2024/01/10 06:06:00;;;;;;;;;;;-6.40;99.90;;;;;;5007599;28;19921;-76
2024/01/10 06:08:46;;;;;;;;;;;-6.40;99.90;;;;;;5028659;28;19917;-76
2024/01/10 06:11:32;;;;;;;;;;;-6.50;99.90;;;;;;5019137;28;20010;-77
2024/01/10 06:14:18;;;;;;;;;;;-6.50;99.90;;;;;;5018558;28;19913;-77
2024/01/10 06:17:03;;;;;;;;;;;-6.60;99.90;;;;;;5007341;28;20387;-76
2024/01/10 06:19:50;;;;;;;;;;;-6.60;99.90;;;;;;5021393;28;20008;-76
2024/01/10 06:22:35;;;;;;;;;;;-6.60;99.90;;;;;;5022080;28;19916;-76
2024/01/10 06:25:22;;;;;;;;;;;-6.60;99.90;;;;;;5000871;28;20393;-76
2024/01/10 06:28:07;;;;;;;;;;;-6.60;99.90;;;;;;4988668;28;19914;-76
2024/01/10 06:30:53;;;;;;;;;;;-6.60;99.90;;;;;;5000466;28;19924;-76
2024/01/10 06:33:39;;;;;;;;;;;-6.60;99.90;;;;;;5000804;28;19922;-76
2024/01/10 06:36:25;;;;;;;;;;;-6.60;99.90;;;;;;4991662;28;19925;-76
2024/01/10 06:39:12;;;;;;;;;;;-6.60;99.90;;;;;;5001982;28;19924;-76
2024/01/10 06:41:58;;;;;;;;;;;-6.60;99.90;;;;;;5015779;28;19918;-76
2024/01/10 06:44:45;;;;;;;;;;;-6.60;99.90;;;;;;4989337;28;20050;-76
2024/01/10 06:47:31;;;;;;;;;;;-6.60;99.90;;;;;;5007040;28;19913;-75
2024/01/10 06:50:19;;;;;;;;;;;-6.60;99.90;;;;;;5000855;28;19955;-75
2024/01/10 06:53:05;;;;;;;;;;;-6.60;99.90;;;;;;4999358;28;19921;-75
2024/01/10 06:55:50;;;;;;;;;;;-6.60;99.90;;;;;;4999872;28;19921;-76
2024/01/10 06:58:36;;;;;;;;;;;-6.70;99.90;;;;;;5014052;28;20546;-75
2024/01/10 07:01:22;;;;;;;;;;;-6.70;99.90;;;;;;5014408;28;19914;-75
2024/01/10 07:04:08;;;;;;;;;;;-6.70;99.90;;;;;;5001318;28;20011;-75
2024/01/10 07:06:54;;;;;;;;;;;-6.70;99.90;;;;;;5031676;28;19986;-75
2024/01/10 07:09:40;;;;;;;;;;;-6.80;99.90;;;;;;4989845;28;19918;-76
2024/01/10 07:12:29;;;;;;;;;;;-6.80;99.90;;;;;;4991486;28;19928;-76
2024/01/10 07:15:15;;;;;;;;;;;-6.80;99.90;;;;;;5016890;28;19975;-75
2024/01/10 07:18:01;;;;;;;;;;;-6.80;99.90;;;;;;5038903;28;19917;-76
2024/01/10 07:20:47;;;;;;;;;;;-6.80;99.90;;;;;;5024497;28;19921;-75
2024/01/10 07:23:34;;;;;;;;;;;-6.80;99.90;;;;;;5011970;28;19913;-76
2024/01/10 07:26:20;;;;;;;;;;;-6.80;99.90;;;;;;5037184;28;19924;-76
2024/01/10 07:29:08;;;;;;;;;;;-6.80;99.90;;;;;;5036565;28;19917;-75
2024/01/10 07:31:54;;;;;;;;;;;-6.80;99.90;;;;;;5036732;28;19924;-76
2024/01/10 07:34:40;;;;;;;;;;;-6.80;99.90;;;;;;5011194;28;19913;-76
2024/01/10 07:37:26;;;;;;;;;;;-6.80;99.90;;;;;;5010706;28;20245;-76
2024/01/10 07:40:13;;;;;;;;;;;-6.80;99.90;;;;;;5004393;28;19953;-76
2024/01/10 07:42:59;;;;;;;;;;;-6.80;99.90;;;;;;5023024;28;19951;-76
2024/01/10 07:45:44;;;;;;;;;;;-6.80;99.90;;;;;;5010481;28;20237;-76
2024/01/10 07:48:31;;;;;;;;;;;-6.80;99.90;;;;;;5023383;28;20352;-76
2024/01/10 07:51:16;;;;;;;;;;;-6.80;99.90;;;;;;5010474;28;19992;-76
2024/01/10 07:54:02;;;;;;;;;;;-6.80;99.90;;;;;;5010818;28;20015;-76
2024/01/10 07:56:48;;;;;;;;;;;-6.80;99.90;;;;;;5011269;28;19928;-76
2024/01/10 07:59:34;;;;;;;;;;;-6.80;99.90;;;;;;5011318;28;20325;-76
2024/01/10 08:02:20;;;;;;;;;;;-6.70;99.90;;;;;;5030792;28;19913;-76
2024/01/10 08:05:09;;;;;;;;;;;-6.70;99.90;;;;;;5021523;28;20012;-76
2024/01/10 08:07:56;;;;;;;;;;;-6.70;99.90;;;;;;5011294;28;19920;-76
2024/01/10 08:10:42;;;;;;;;;;;-6.60;99.90;;;;;;5001745;28;20538;-76
2024/01/10 08:13:28;;;;;;;;;;;-6.60;99.90;;;;;;5001869;28;19923;-76
2024/01/10 08:16:14;;;;;;;;;;;-6.60;99.90;;;;;;5001640;28;20389;-76
2024/01/10 08:19:00;;;;;;;;;;;-6.60;99.90;;;;;;5024576;28;19992;-76
2024/01/10 08:21:46;;;;;;;;;;;-6.60;99.90;;;;;;5034895;28;19917;-76
2024/01/10 08:24:31;;;;;;;;;;;-6.60;99.90;;;;;;5015567;28;19917;-76
2024/01/10 08:27:17;;;;;;;;;;;-6.50;99.90;;;;;;5021384;28;20317;-76
2024/01/10 08:30:04;;;;;;;;;;;-6.50;99.90;;;;;;5002102;28;19949;-76
2024/01/10 08:32:50;;;;;;;;;;;-6.50;99.90;;;;;;5014150;28;20306;-76
2024/01/10 08:35:36;;;;;;;;;;;-6.50;99.90;;;;;;5014910;28;19929;-76
2024/01/10 08:38:22;;;;;;;;;;;-6.40;99.90;;;;;;5003276;28;19939;-76
2024/01/10 08:41:11;;;;;;;;;;;-6.30;99.90;;;;;;5011416;28;19921;-76
2024/01/10 08:43:57;;;;;;;;;;;-6.30;99.90;;;;;;5010131;28;19928;-76
2024/01/10 08:46:43;;;;;;;;;;;-6.30;99.90;;;;;;5000863;28;19913;-76
2024/01/10 08:49:29;;;;;;;;;;;-6.20;99.90;;;;;;5014869;28;19952;-76
2024/01/10 08:52:14;;;;;;;;;;;-6.20;99.90;;;;;;5013389;28;19921;-76
2024/01/10 08:55:00;;;;;;;;;;;-6.10;99.90;;;;;;5002797;28;19944;-76
2024/01/10 08:57:46;;;;;;;;;;;-6.10;99.90;;;;;;4988914;28;19918;-76
2024/01/10 09:00:32;;;;;;;;;;;-6.10;99.90;;;;;;5003919;28;20292;-76
2024/01/10 09:03:19;;;;;;;;;;;-6.00;99.90;;;;;;5001873;28;20506;-76
2024/01/10 09:06:07;;;;;;;;;;;-5.90;99.90;;;;;;5020769;28;19992;-76
2024/01/10 09:08:53;;;;;;;;;;;-5.90;99.90;;;;;;5008003;28;19913;-76
2024/01/10 09:11:39;;;;;;;;;;;-5.80;99.90;;;;;;5014692;28;19925;-76
2024/01/10 09:14:24;;;;;;;;;;;-5.80;99.90;;;;;;5018702;28;19917;-76
2024/01/10 09:17:10;;;;;;;;;;;-5.80;99.90;;;;;;5020631;28;20005;-76
2024/01/10 09:19:57;;;;;;;;;;;-5.70;99.90;;;;;;5006843;28;19956;-76
2024/01/10 09:22:43;;;;;;;;;;;-5.70;99.90;;;;;;5010603;28;19913;-76
2024/01/10 09:25:29;;;;;;;;;;;-5.60;99.90;;;;;;5027242;28;19999;-76
2024/01/10 09:28:15;;;;;;;;;;;-5.50;99.90;;;;;;5023106;28;19914;-76
2024/01/10 09:31:01;;;;;;;;;;;-5.50;99.90;;;;;;5033674;28;19943;-76
2024/01/10 09:33:47;;;;;;;;;;;-5.40;99.90;;;;;;5025007;28;19925;-76
2024/01/10 09:36:33;;;;;;;;;;;-5.30;99.90;;;;;;5012117;28;20020;-76
2024/01/10 09:39:19;;;;;;;;;;;-5.20;99.90;;;;;;5021672;28;19951;-76
2024/01/10 09:42:06;;;;;;;;;;;-5.10;99.90;;;;;;5020921;28;19917;-76
2024/01/10 09:44:52;;;;;;;;;;;-5.00;99.90;;;;;;5006654;28;19920;-76
2024/01/10 09:47:38;;;;;;;;;;;-4.90;99.90;;;;;;5019817;28;19925;-76
2024/01/10 09:50:27;;;;;;;;;;;-4.80;99.90;;;;;;5029873;28;19917;-76
2024/01/10 09:53:16;;;;;;;;;;;-4.60;99.90;;;;;;5012266;28;19925;-76
2024/01/10 09:56:05;;;;;;;;;;;-4.50;99.90;;;;;;5046272;28;19921;-77
2024/01/10 09:58:51;;;;;;;;;;;-4.30;99.90;;;;;;5033746;28;20328;-76
2024/01/10 10:01:39;;;;;;;;;;;-4.20;99.90;;;;;;5019901;28;20047;-76
2024/01/10 10:04:24;;;;;;;;;;;-4.00;99.90;;;;;;5007739;28;20249;-76
2024/01/10 10:07:10;;;;;;;;;;;-3.80;99.90;;;;;;5006428;28;19917;-76
2024/01/10 10:09:57;;;;;;;;;;;-3.70;99.90;;;;;;5019180;28;19913;-75
2024/01/10 10:12:44;;;;;;;;;;;-3.50;99.90;;;;;;5015396;28;20317;-75
2024/01/10 10:15:30;;;;;;;;;;;-3.40;99.90;;;;;;5029006;28;19951;-77
2024/01/10 10:18:16;;;;;;;;;;;-3.20;99.90;;;;;;5014586;28;19917;-76
2024/01/10 10:21:08;;;;;;;;;;;-3.00;99.90;;;;;;5010386;28;19979;-77
2024/01/10 10:23:58;;;;;;;;;;;-2.70;99.90;;;;;;5026622;28;20066;-76
2024/01/10 10:26:44;;;;;;;;;;;-2.40;99.90;;;;;;5009089;28;19917;-75
2024/01/10 10:29:30;;;;;;;;;;;-2.20;99.90;;;;;;5024570;28;20337;-76
2024/01/10 10:32:16;;;;;;;;;;;-1.90;99.90;;;;;;5010105;28;20004;-75
2024/01/10 10:35:03;;;;;;;;;;;-1.60;99.90;;;;;;5029960;28;19972;-76
2024/01/10 10:37:49;;;;;;;;;;;-1.30;99.90;;;;;;5014879;28;19921;-75
2024/01/10 10:40:35;;;;;;;;;;;-0.90;99.90;;;;;;4999234;28;19917;-75
2024/01/10 10:43:21;;;;;;;;;;;-0.60;99.90;;;;;;5021399;28;19917;-75
2024/01/10 10:46:09;;;;;;;;;;;-0.30;99.90;;;;;;5037605;28;20302;-76
2024/01/10 10:49:00;;;;;;;;;;;0.00;99.90;;;;;;5016482;28;19917;-77
2024/01/10 10:51:48;;;;;;;;;;;0.20;99.90;;;;;;5017523;28;19918;-76
2024/01/10 10:54:34;;;;;;;;;;;0.60;99.90;;;;;;5003748;28;20468;-76
2024/01/10 10:57:20;;;;;;;;;;;1.00;99.90;;;;;;5022661;28;20012;-76
2024/01/10 11:00:07;;;;;;;;;;;;;;;;;;5009001;28;19913;-76
2024/01/10 11:02:53;;;;;;;;;;;;;;;;;;5012842;28;20386;-76
2024/01/10 11:05:39;;;;;;;;;;;;;;;;;;5023329;28;19928;-77
2024/01/10 11:08:25;;;;;;;;;;;;;;;;;;5034445;28;19924;-77
2024/01/10 11:11:12;;;;;;;;;;;;;;;;;;5022971;28;19924;-76
2024/01/10 11:13:58;;;;;;;;;;;;;;;;;;5037470;28;19917;-77
2024/01/10 11:16:45;;;;;;;;;;;;;;;;;;5037890;28;20325;-77
2024/01/10 11:19:31;;;;;;;;;;;;;;;;;;5036304;28;20706;-76
2024/01/10 11:22:18;;;;;;;;;;;;;;;;;;5037291;28;19992;-76
2024/01/10 11:25:05;;;;;;;;;;;;;;;;;;5023726;28;19940;-77
2024/01/10 11:27:52;;;;;;;;;;;;;;;;;;5036638;28;20321;-76
2024/01/10 11:30:38;;;;;;;;;;;;;;;;;;5035236;28;19913;-76
2024/01/10 11:33:25;;;;;;;;;;;;;;;;;;5034109;28;20175;-76
2024/01/10 11:36:11;;;;;;;;;;;;;;;;;;5035509;28;19936;-76
2024/01/10 11:38:57;;;;;;;;;;;;;;;;;;5018828;28;19967;-76
2024/01/10 11:41:44;;;;;;;;;;;;;;;;;;5039298;28;19945;-76
2024/01/10 11:44:30;;;;;;;;;;;;;;;;;;5022829;28;20010;-76
2024/01/10 11:47:18;;;;;;;;;;;;;;;;;;5025279;28;20024;-76
2024/01/10 11:50:07;;;;;;;;;;;;;;;;;;5022032;28;20345;-76
2024/01/10 11:52:53;;;;;;;;;;;;;;;;;;5028807;28;20008;-75
2024/01/10 11:55:39;;;;;;;;;;;;;;;;;;5034964;28;19987;-75
2024/01/10 11:58:26;;;;;;;;;;;;;;;;;;5021197;28;20047;-75
2024/01/10 12:01:12;;;;;;;;;;;;;;;;;;5023675;28;19917;-75
2024/01/10 12:03:59;;;;;;;;;;;;;;;;;;5035493;28;20274;-75
2024/01/10 12:06:46;;;;;;;;;;;;;;;;;;5034026;28;19917;-77
2024/01/10 12:09:32;;;;;;;;;;;;;;;;;;5033336;28;19925;-77
2024/01/10 12:12:19;;;;;;;;;;;;;;;;;;5036450;28;19913;-77
2024/01/10 12:15:05;;;;;;;;;;;;;;;;;;5021994;28;19921;-77
2024/01/10 12:17:52;;;;;;;;;;;;;;;;;;5035526;28;19961;-77
2024/01/10 12:20:38;;;;;;;;;;;;;;;;;;5035619;28;20028;-76
2024/01/10 12:23:30;;;;;;;;;;;;;;;;;;5034777;28;19992;-77
2024/01/10 12:26:17;;;;;;;;;;;;;;;;;;5031326;28;19917;-77
2024/01/10 12:29:04;;;;;;;;;;;;;;;;;;5035336;28;19917;-77
2024/01/10 12:31:50;;;;;;;;;;;;;;;;;;5022151;28;19917;-77
2024/01/10 12:34:37;;;;;;;;;;;;;;;;;;5005662;28;19917;-77
2024/01/10 12:37:23;;;;;;;;;;;;;;;;;;5028085;28;20005;-77
2024/01/10 12:40:10;;;;;;;;;;;;;;;;;;5030862;28;19913;-77
2024/01/10 12:42:56;;;;;;;;;;;;;;;;;;5034913;28;20357;-77
2024/01/10 12:45:45;;;;;;;;;;;;;;;;;;5031784;28;19940;-77
2024/01/10 12:48:33;;;;;;;;;;;;;;;;;;5024224;28;19936;-77
2024/01/10 12:51:19;;;;;;;;;;;;;;;;;;5030819;28;20027;-76
2024/01/10 12:54:05;;;;;;;;;;;;;;;;;;5037285;28;20382;-76
2024/01/10 12:56:51;;;;;;;;;;;;;;;;;;5019750;28;20303;-77
2024/01/10 12:59:38;;;;;;;;;;;;;;;;;;5014316;28;20004;-77
2024/01/10 13:02:24;;;;;;;;;;;;;;;;;;5022842;28;20015;-77
2024/01/10 13:05:10;;;;;;;;;;;;;;;;;;5016674;28;19972;-77
2024/01/10 13:07:57;;;;;;;;;;;;;;;;;;5026587;28;19913;-76
2024/01/10 13:10:43;;;;;;;;;;;;;;;;;;5021905;28;19979;-76
2024/01/10 13:13:30;;;;;;;;;;;;;;;;;;5034134;28;19963;-77
2024/01/10 13:16:16;;;;;;;;;;;;;;;;;;5020602;28;20245;-76
2024/01/10 13:19:03;;;;;;;;;;;;;;;;;;5033601;28;19916;-76
2024/01/10 13:21:49;;;;;;;;;;;;;;;;;;5034918;28;19996;-76
2024/01/10 13:24:35;;;;;;;;;;;;;;;;;;5002448;28;19924;-76
2024/01/10 13:27:21;;;;;;;;;;;;;;;;;;5031966;28;19924;-76
2024/01/10 13:30:11;;;;;;;;;;;;;;;;;;5035212;28;20313;-76
2024/01/10 13:33:00;;;;;;;;;;;;;;;;;;5018381;28;19920;-76
2024/01/10 13:35:47;;;;;;;;;;;;;;;;;;5013929;28;20452;-76
2024/01/10 13:38:33;;;;;;;;;;;;;;;;;;5018682;28;20042;-76
2024/01/10 13:41:19;;;;;;;;;;;;;;;;;;5033428;28;19917;-76
2024/01/10 13:44:05;;;;;;;;;;;;;;;;;;5001458;28;20360;-76
2024/01/10 13:46:52;;;;;;;;;;;;;;;;;;5016734;28;19924;-77
2024/01/10 13:49:38;;;;;;;;;;;;;;;;;;5016556;28;19920;-76
2024/01/10 13:52:26;;;;;;;;;;;;;;;;;;5024455;28;19932;-76
2024/01/10 13:55:12;;;;;;;;;;;;;;;;;;5030138;28;19924;-76
2024/01/10 13:57:58;;;;;;;;;;;;;;;;;;5021874;28;19925;-76
2024/01/10 14:00:46;;;;;;;;;;;;;;;;;;5017163;28;19917;-76
2024/01/10 14:03:33;;;;;;;;;;;;;;;;;;5018452;28;20369;-76
2024/01/10 14:06:19;;;;;;;;;;;;;;;;;;5015841;28;19918;-76
2024/01/10 14:09:05;;;;;;;;;;;;;;;;;;5011643;28;19955;-76
2024/01/10 14:11:53;;;;;;;;;;;;;;;;;;5022850;28;20009;-76
2024/01/10 14:14:39;;;;;;;;;;;;;;;;;;5010829;28;20326;-76
2024/01/10 14:17:26;;;;;;;;;;;;;;;;;;5023845;28;19932;-76
2024/01/10 14:20:12;;;;;;;;;;;;;;;;;;5010981;28;19917;-77
2024/01/10 14:22:59;;;;;;;;;;;;;;;;;;5029623;28;20517;-77
2024/01/10 14:25:45;;;;;;;;;;;;;;;;;;5047197;28;19959;-76
2024/01/10 14:28:32;;;;;;;;;;;;;;;;;;5022636;28;19944;-79
2024/01/10 14:31:18;;;;;;;;;;;3.30;92.80;;;;;;5014757;28;19944;-79
2024/01/10 14:34:04;;;;;;;;;;;3.10;93.50;;;;;;5023463;28;19920;-79
2024/01/10 14:36:50;;;;;;;;;;;3.00;92.70;;;;;;5019552;28;19964;-79
2024/01/10 14:39:40;;;;;;;;;;;2.80;92.90;;;;;;5034222;28;19979;-79
2024/01/10 14:42:26;;;;;;;;;;;2.60;93.20;;;;;;5008258;28;19913;-79
2024/01/10 14:45:12;;;;;;;;;;;2.50;93.40;;;;;;5020450;28;20533;-79
2024/01/10 14:47:57;;;;;;;;;;;2.50;93.50;;;;;;5007891;28;19921;-79
2024/01/10 14:50:43;;;;;;;;;;;2.40;93.00;;;;;;5019708;28;20000;-78
2024/01/10 14:53:29;;;;;;;;;;;2.10;93.20;;;;;;5013746;28;20015;-78
2024/01/10 14:56:15;;;;;;;;;;;1.90;93.00;;;;;;5043758;28;20348;-79
2024/01/10 14:59:01;;;;;;;;;;;1.80;94.00;;;;;;5005040;28;19916;-78
2024/01/10 15:01:47;;;;;;;;;;;1.60;93.60;;;;;;5020366;28;19917;-78
2024/01/10 15:04:37;;;;;;;;;;;1.50;93.80;;;;;;5008622;28;19928;-78
2024/01/10 15:07:23;;;;;;;;;;;1.40;94.00;;;;;;5009612;28;19924;-78
2024/01/10 15:10:09;;;;;;;;;;;1.20;93.90;;;;;;5001222;28;19924;-77
2024/01/10 15:12:55;;;;;;;;;;;1.00;94.20;;;;;;5000187;28;19921;-77
2024/01/10 15:15:42;;;;;;;;;;;0.80;94.60;;;;;;4999907;28;19921;-77
2024/01/10 15:18:28;;;;;;;;;;;0.70;94.60;;;;;;4999052;28;20366;-78
2024/01/10 15:21:14;;;;;;;;;;;0.50;94.70;;;;;;5000439;28;19914;-77
2024/01/10 15:24:00;;;;;;;;;;;0.30;94.80;;;;;;5016545;28;19998;-77
2024/01/10 15:26:45;;;;;;;;;;;0.10;95.30;;;;;;5013204;28;20007;-78
2024/01/10 15:29:31;;;;;;;;;;;-0.10;95.50;;;;;;5000407;28;19920;-77
2024/01/10 15:32:17;;;;;;;;;;;-0.20;95.90;;;;;;5008105;28;19917;-77
2024/01/10 15:35:04;;;;;;;;;;;-0.40;96.20;;;;;;5023282;28;19917;-77
2024/01/10 15:37:50;;;;;;;;;;;-0.50;96.50;;;;;;5022903;28;19921;-77
2024/01/10 15:40:35;;;;;;;;;;;-0.60;96.80;;;;;;5008042;28;20004;-77
2024/01/10 15:43:21;;;;;;;;;;;-0.70;97.10;;;;;;5037096;28;19953;-77
2024/01/10 15:46:07;;;;;;;;;;;-0.70;97.30;;;;;;5023286;28;19944;-77
2024/01/10 15:48:53;;;;;;;;;;;-0.80;97.60;;;;;;5010627;28;19928;-77
2024/01/10 15:51:39;;;;;;;;;;;-0.90;97.80;;;;;;5010333;28;19941;-76
2024/01/10 15:54:25;;;;;;;;;;;-1.00;98.10;;;;;;5022470;28;20003;-77
2024/01/10 15:57:13;;;;;;;;;;;-1.10;98.50;;;;;;5036363;28;19921;-77
2024/01/10 15:59:59;;;;;;;;;;;-1.20;98.70;;;;;;5023204;28;19925;-77
2024/01/10 16:02:45;;;;;;;;;;;-1.30;98.90;;;;;;5023788;28;20227;-77
2024/01/10 16:05:31;;;;;;;;;;;-1.40;99.20;;;;;;5010306;28;19972;-77
2024/01/10 16:08:17;;;;;;;;;;;-1.40;99.30;;;;;;5010504;28;20322;-77
2024/01/10 16:11:15;;;;;;;;;;;-1.50;99.70;;;;;;4990740;28;19976;-77
2024/01/10 16:14:02;;;;;;;;;;;-1.60;99.90;;;;;;5014228;28;19918;-77
2024/01/10 16:16:49;;;;;;;;;;;-1.50;99.90;;;;;;5022672;28;20351;-77
2024/01/10 16:19:34;;;;;;;;;;;-1.60;99.90;;;;;;5003221;28;20008;-77
2024/01/10 16:22:20;;;;;;;;;;;-1.70;99.90;;;;;;5038159;28;19975;-76
2024/01/10 16:25:06;;;;;;;;;;;-1.80;99.90;;;;;;5019153;28;19924;-77
2024/01/10 16:27:52;;;;;;;;;;;-1.80;99.90;;;;;;5020276;28;19928;-77
2024/01/10 16:30:38;;;;;;;;;;;-1.80;99.90;;;;;;5026303;28;19973;-77
2024/01/10 16:33:24;;;;;;;;;;;-1.80;99.90;;;;;;5044100;28;19952;-77
2024/01/10 16:36:10;;;;;;;;;;;-1.90;99.90;;;;;;5037464;28;20786;-76
2024/01/10 16:38:56;;;;;;;;;;;-1.90;99.90;;;;;;5041864;28;19920;-77